Terminal Aerodrome Forecast
Issued by NWS Boston, MA

Home | Current Version | Previous Version | Text Only | Print | Product List | Glossary On
Versions: 1 2 3 4 5 6 7 8 9 10 11 12 13 14 15 16 17 18 19 20 21 22 23 24 25 26 27 28 29 30 31 32 33 34 35 36 37 38 39 40 41 42 43 44 45 46 47 48 49 50
000
FTUS41 KBOX 282100 AAB
TAFBOS
TAF AMD
KBOS 282100Z 2821/2924 36011KT 2SM -SN BR BKN015 OVC025
     FM290100 34007KT 3SM -SN BR BKN015 OVC020
     FM290300 32011KT 4SM -SN BR OVC020
     FM290600 34012G18KT P6SM OVC050
     FM291300 34008KT P6SM BKN050
     FM291600 31005KT P6SM SCT250
     FM291800 24006KT P6SM FEW250=

USA.gov is the U.S. government's official web portal to all federal, state and local government web resources and services.